Orange Cove, California
Current Conditions -  °F | °C
As of 6:15 PM on Friday 24 Oct 2014 (Local Time) from KVIS Reporting Station
Clear Clear  
Wind Chill: 79°   Ceiling: Unl
Heat Index: 79°   Visibility: 10mi
Dew Point: 43°   Wind: 0mph
Humidity: 28%   Direction: NA
Pressure: 29.86"   Gusts: NA
Location:  36.62°N, 119.3°W
Report Text: KVIS 250115Z 00000KT 10SM CLR 26/06 A2986 RMK AO1
Loading
Personal Weather Stations






























Interactive Weather Map
Tropical Storm Tracking
New forecast layout! Learn more

10-Day Weather Forecast

Advertisements
Track Severe Weather on mobile